createdAt,value
2022-12-03T00:03:01.979Z,58.43
2022-12-03T00:08:04.041Z,59.40
2022-12-03T00:13:08.822Z,59.57
2022-12-03T00:18:10.902Z,59.43
2022-12-03T00:23:14.107Z,59.22
2022-12-03T00:28:16.068Z,58.60
2022-12-03T00:33:18.151Z,58.43
2022-12-03T00:38:20.128Z,58.11
2022-12-03T00:43:25.445Z,58.19
2022-12-03T00:48:27.575Z,58.22
2022-12-03T00:53:29.766Z,58.19
2022-12-03T00:58:38.705Z,58.15
2022-12-03T01:03:40.676Z,57.51
2022-12-03T01:08:42.694Z,57.79
2022-12-03T01:13:46.016Z,57.55
2022-12-03T01:18:52.364Z,58.07
2022-12-03T01:23:57.455Z,58.23
2022-12-03T01:28:59.334Z,58.37
2022-12-03T01:34:07.117Z,58.42
2022-12-03T01:39:09.012Z,58.15
2022-12-03T01:44:20.040Z,58.59
2022-12-03T01:49:26.289Z,58.54
2022-12-03T01:54:36.477Z,59.03
2022-12-03T01:59:39.421Z,58.25
2022-12-03T02:05:22.698Z,58.29
2022-12-03T02:10:35.125Z,58.95
2022-12-03T02:15:43.192Z,58.55
2022-12-03T02:20:59.253Z,58.01
2022-12-03T02:26:01.151Z,58.78
2022-12-03T02:31:05.296Z,58.73
2022-12-03T02:36:08.006Z,57.78
2022-12-03T02:41:35.701Z,58.42
2022-12-03T02:46:37.805Z,58.47
2022-12-03T02:51:39.936Z,58.14
2022-12-03T02:56:43.053Z,58.07
2022-12-03T03:01:46.127Z,58.59
2022-12-03T03:06:49.253Z,58.98
2022-12-03T03:11:51.627Z,58.50
2022-12-03T03:16:56.331Z,59.27
2022-12-03T03:21:58.537Z,59.29
2022-12-03T03:27:00.507Z,59.47
2022-12-03T03:32:03.822Z,59.44
2022-12-03T03:37:05.897Z,59.48
2022-12-03T03:42:07.903Z,59.46
2022-12-03T03:47:11.396Z,58.98
2022-12-03T03:52:13.463Z,59.63
2022-12-03T03:57:20.659Z,59.53
2022-12-03T04:02:28.664Z,59.32
2022-12-03T04:07:30.692Z,59.10
2022-12-03T04:12:51.523Z,59.54
2022-12-03T04:18:12.239Z,58.93
2022-12-03T04:23:18.979Z,58.85
2022-12-03T04:28:39.842Z,58.86
2022-12-03T04:34:03.273Z,59.21
2022-12-03T04:39:06.021Z,58.61
2022-12-03T04:44:26.819Z,58.58
2022-12-03T04:49:28.788Z,58.94
2022-12-03T04:54:30.811Z,58.90
2022-12-03T04:59:38.418Z,58.52
2022-12-03T05:04:43.619Z,59.15
2022-12-03T05:09:50.359Z,59.14
2022-12-03T05:14:57.350Z,58.82
2022-12-03T05:20:18.714Z,59.24
2022-12-03T05:25:23.565Z,59.39
2022-12-03T05:30:29.609Z,59.67
2022-12-03T05:35:41.292Z,59.66
2022-12-03T05:41:31.169Z,59.27
2022-12-03T05:46:45.691Z,59.65
2022-12-03T05:52:01.864Z,59.64
2022-12-03T06:02:22.474Z,60.13
2022-12-03T06:07:30.302Z,60.32
2022-12-03T06:12:42.744Z,59.80
2022-12-03T06:17:48.956Z,60.13
2022-12-03T06:22:53.359Z,60.45
2022-12-03T06:28:07.072Z,60.80
2022-12-03T06:33:14.271Z,59.84
2022-12-03T06:38:26.896Z,59.63
2022-12-03T06:43:33.560Z,60.01
2022-12-03T06:48:39.541Z,59.35
2022-12-03T06:53:47.551Z,59.91
2022-12-03T07:04:17.660Z,59.23
2022-12-03T07:09:28.580Z,59.50
2022-12-03T07:14:37.440Z,59.28
2022-12-03T07:19:45.660Z,59.75
2022-12-03T07:24:49.112Z,58.88
2022-12-03T07:29:52.929Z,58.91
2022-12-03T07:35:03.033Z,59.17
2022-12-03T07:40:24.550Z,58.42
2022-12-03T07:45:31.359Z,58.39
2022-12-03T07:50:48.306Z,58.45
2022-12-03T07:55:57.955Z,57.86
2022-12-03T08:06:23.167Z,42.80
2022-12-03T08:11:39.275Z,35.99
2022-12-03T08:16:43.844Z,33.83
2022-12-03T08:22:26.704Z,30.01
2022-12-03T08:27:46.695Z,32.24
2022-12-03T08:32:52.055Z,32.37
2022-12-03T08:38:30.272Z,30.18
2022-12-03T08:49:04.410Z,34.72
2022-12-03T08:54:22.368Z,33.53
2022-12-03T08:59:36.187Z,33.43
2022-12-03T09:04:57.565Z,36.79
2022-12-03T09:10:09.679Z,37.21
2022-12-03T09:15:17.282Z,35.90
2022-12-03T09:20:31.124Z,38.08
2022-12-03T09:25:45.994Z,38.73
2022-12-03T09:30:54.223Z,38.21
2022-12-03T09:35:59.122Z,39.34
2022-12-03T09:41:05.580Z,39.03
2022-12-03T09:46:11.194Z,39.76
2022-12-03T09:51:17.230Z,38.99
2022-12-03T09:56:26.137Z,39.05
2022-12-03T10:01:31.311Z,40.15
2022-12-03T10:06:45.791Z,38.79
2022-12-03T10:11:54.138Z,39.73
2022-12-03T10:17:10.380Z,39.82
2022-12-03T10:22:23.572Z,39.56
2022-12-03T10:28:09.048Z,37.44
2022-12-03T10:33:31.267Z,37.90
2022-12-03T10:39:00.320Z,39.17
2022-12-03T10:44:41.929Z,36.43
2022-12-03T10:50:02.019Z,38.26
2022-12-03T10:55:16.439Z,38.19
2022-12-03T11:00:29.287Z,37.71
2022-12-03T11:05:39.609Z,36.76
2022-12-03T11:10:44.360Z,38.22
2022-12-03T11:15:48.059Z,37.88
2022-12-03T11:21:12.933Z,35.94
2022-12-03T11:26:43.546Z,36.12
2022-12-03T11:31:48.709Z,37.03
2022-12-03T11:37:18.040Z,35.35
2022-12-03T11:42:29.927Z,37.87
2022-12-03T11:47:47.345Z,36.04
2022-12-03T11:53:22.171Z,35.41
2022-12-03T11:58:32.155Z,36.84
2022-12-03T12:03:52.070Z,36.03
2022-12-03T12:09:05.033Z,37.08
2022-12-03T12:14:28.738Z,37.33
2022-12-03T12:19:51.046Z,36.53
2022-12-03T12:25:43.536Z,36.74
2022-12-03T12:30:47.965Z,37.10
2022-12-03T12:36:02.362Z,39.29
2022-12-03T12:41:34.908Z,40.33
2022-12-03T12:46:55.483Z,39.97
2022-12-03T12:52:00.466Z,40.05
2022-12-03T12:57:35.309Z,38.90
2022-12-03T13:03:32.966Z,38.07
2022-12-03T13:08:59.402Z,38.98
2022-12-03T13:14:23.324Z,40.17
2022-12-03T13:19:47.582Z,40.18
2022-12-03T13:30:58.665Z,40.47
2022-12-03T13:36:13.135Z,40.59
2022-12-03T13:41:52.345Z,40.45
2022-12-03T13:52:53.191Z,41.04
2022-12-03T13:58:01.578Z,41.22
2022-12-03T14:03:29.458Z,42.04
2022-12-03T14:09:11.568Z,42.97
2022-12-03T14:14:17.001Z,42.76
2022-12-03T14:19:28.859Z,43.19
2022-12-03T14:24:41.696Z,43.86
2022-12-03T14:29:52.435Z,43.99
2022-12-03T14:35:05.137Z,44.67
2022-12-03T14:40:21.761Z,45.29
2022-12-03T14:51:11.417Z,46.21
2022-12-03T14:56:37.462Z,46.84
2022-12-03T15:01:41.992Z,47.30
2022-12-03T15:06:51.883Z,47.81
2022-12-03T15:11:58.403Z,48.02
2022-12-03T15:17:07.305Z,49.33
2022-12-03T15:22:14.424Z,49.69
2022-12-03T15:27:45.002Z,50.32
2022-12-03T15:32:48.925Z,50.84
2022-12-03T15:37:54.327Z,51.68
2022-12-03T15:43:09.627Z,51.53
2022-12-03T15:48:20.378Z,52.38
2022-12-03T15:53:26.231Z,51.98
2022-12-03T15:58:34.142Z,52.67
2022-12-03T16:03:40.245Z,52.62
2022-12-03T16:08:52.054Z,53.05
2022-12-03T16:14:01.792Z,53.69
2022-12-03T16:19:08.505Z,53.17
2022-12-03T16:24:17.477Z,53.49
2022-12-03T16:29:45.997Z,53.77
2022-12-03T16:34:53.248Z,53.97
2022-12-03T16:40:03.846Z,53.76
2022-12-03T16:45:30.369Z,54.00
2022-12-03T16:50:36.210Z,54.19
2022-12-03T16:55:46.036Z,54.01
2022-12-03T17:01:07.296Z,54.98
2022-12-03T17:06:17.562Z,54.22
2022-12-03T17:11:24.842Z,54.41
2022-12-03T17:16:42.599Z,55.24
2022-12-03T17:21:55.316Z,54.92
2022-12-03T17:27:17.912Z,54.92
2022-12-03T17:32:24.361Z,55.18
2022-12-03T17:43:11.026Z,55.72
2022-12-03T17:48:23.808Z,56.08
2022-12-03T17:53:29.404Z,56.07
2022-12-03T17:58:33.231Z,56.27
2022-12-03T18:03:55.113Z,56.44
2022-12-03T18:09:03.853Z,56.50
2022-12-03T18:14:23.168Z,56.07
2022-12-03T18:19:37.022Z,56.08
2022-12-03T18:24:40.195Z,56.25
2022-12-03T18:40:37.438Z,55.66
2022-12-03T18:45:44.136Z,56.17
2022-12-03T18:50:53.252Z,56.21
2022-12-03T18:56:00.367Z,56.21
2022-12-03T19:01:08.804Z,56.30
2022-12-03T19:06:22.666Z,56.86
2022-12-03T19:11:30.776Z,56.47
2022-12-03T19:16:40.489Z,56.43
2022-12-03T19:21:43.082Z,56.83
2022-12-03T19:26:49.310Z,56.25
2022-12-03T19:31:57.635Z,56.44
2022-12-03T19:37:11.791Z,56.39
2022-12-03T19:42:23.369Z,56.63
2022-12-03T19:47:29.531Z,56.49
2022-12-03T19:52:48.535Z,56.63
2022-12-03T19:57:52.521Z,56.36
2022-12-03T20:03:06.694Z,56.25
2022-12-03T20:08:18.215Z,55.80
2022-12-03T20:13:42.424Z,55.41
2022-12-03T20:18:54.068Z,55.37
2022-12-03T20:24:00.462Z,55.59
2022-12-03T20:29:09.510Z,54.80
2022-12-03T20:34:19.005Z,55.12
2022-12-03T20:39:22.815Z,54.66
2022-12-03T20:44:30.226Z,54.78
2022-12-03T20:49:41.526Z,55.32
2022-12-03T20:54:45.723Z,55.27
2022-12-03T20:59:48.813Z,54.74
2022-12-03T21:04:55.854Z,54.70
2022-12-03T21:10:12.147Z,54.03
2022-12-03T21:15:20.041Z,55.88
2022-12-03T21:20:32.175Z,57.69
2022-12-03T21:25:41.634Z,60.20
2022-12-03T21:30:45.172Z,60.00
2022-12-03T21:35:50.578Z,59.99
2022-12-03T21:40:56.026Z,59.89
2022-12-03T21:47:12.462Z,60.45
2022-12-03T21:51:43.619Z,60.84
2022-12-03T21:56:48.472Z,60.54
2022-12-03T22:01:57.820Z,61.61
2022-12-03T22:07:03.618Z,62.68
2022-12-03T22:12:08.456Z,62.53
2022-12-03T22:17:22.738Z,63.53
2022-12-03T22:22:29.910Z,62.65
2022-12-03T22:27:35.736Z,62.93
2022-12-03T22:32:47.915Z,65.26
2022-12-03T22:37:54.673Z,65.04
2022-12-03T22:43:04.074Z,66.13
2022-12-03T22:48:15.163Z,66.98
2022-12-03T22:53:28.989Z,68.41
2022-12-03T22:58:39.774Z,67.94
2022-12-03T23:03:47.171Z,69.78
2022-12-03T23:09:00.164Z,69.19
2022-12-03T23:19:31.636Z,68.87
2022-12-03T23:24:45.797Z,68.54
2022-12-03T23:30:14.520Z,68.62
2022-12-03T23:35:23.681Z,67.62
2022-12-03T23:45:56.727Z,67.98
2022-12-03T23:51:08.275Z,69.21
2022-12-03T23:56:21.672Z,68.54
